sensor_id;sensor_type;location;lat;lon;timestamp;temperature;humidity
32506;DHT22;18955;51.224;8.482;2022-10-31T00:02:11;12.90;84.70
32506;DHT22;18955;51.224;8.482;2022-10-31T00:04:37;12.80;84.70
32506;DHT22;18955;51.224;8.482;2022-10-31T00:07:04;12.80;84.60
32506;DHT22;18955;51.224;8.482;2022-10-31T00:09:30;12.80;84.50
32506;DHT22;18955;51.224;8.482;2022-10-31T00:11:56;12.80;84.60
32506;DHT22;18955;51.224;8.482;2022-10-31T00:14:22;12.80;84.60
32506;DHT22;18955;51.224;8.482;2022-10-31T00:16:48;12.70;84.60
32506;DHT22;18955;51.224;8.482;2022-10-31T00:19:16;12.70;84.60
32506;DHT22;18955;51.224;8.482;2022-10-31T00:21:43;12.70;84.70
32506;DHT22;18955;51.224;8.482;2022-10-31T00:24:09;12.70;84.70
32506;DHT22;18955;51.224;8.482;2022-10-31T00:26:36;12.70;84.60
32506;DHT22;18955;51.224;8.482;2022-10-31T00:29:03;12.70;84.60
32506;DHT22;18955;51.224;8.482;2022-10-31T00:31:29;12.60;84.50
32506;DHT22;18955;51.224;8.482;2022-10-31T00:33:56;12.60;85.10
32506;DHT22;18955;51.224;8.482;2022-10-31T00:36:25;12.60;84.60
32506;DHT22;18955;51.224;8.482;2022-10-31T00:38:51;12.60;84.70
32506;DHT22;18955;51.224;8.482;2022-10-31T00:41:20;12.50;84.70
32506;DHT22;18955;51.224;8.482;2022-10-31T00:43:46;12.60;84.80
32506;DHT22;18955;51.224;8.482;2022-10-31T00:46:13;12.50;84.90
32506;DHT22;18955;51.224;8.482;2022-10-31T00:48:41;12.50;84.70
32506;DHT22;18955;51.224;8.482;2022-10-31T00:51:07;12.50;84.70
32506;DHT22;18955;51.224;8.482;2022-10-31T00:53:34;12.50;84.70
32506;DHT22;18955;51.224;8.482;2022-10-31T00:56:01;12.50;84.70
32506;DHT22;18955;51.224;8.482;2022-10-31T00:58:27;12.40;84.70
32506;DHT22;18955;51.224;8.482;2022-10-31T01:00:54;12.40;84.70
32506;DHT22;18955;51.224;8.482;2022-10-31T01:03:25;12.40;84.80
32506;DHT22;18955;51.224;8.482;2022-10-31T01:06:05;12.40;84.90
32506;DHT22;18955;51.224;8.482;2022-10-31T01:08:33;12.40;84.80
32506;DHT22;18955;51.224;8.482;2022-10-31T01:11:10;12.30;84.70
32506;DHT22;18955;51.224;8.482;2022-10-31T01:13:39;12.30;84.70
32506;DHT22;18955;51.224;8.482;2022-10-31T01:16:07;12.30;84.80
32506;DHT22;18955;51.224;8.482;2022-10-31T01:18:34;12.30;84.80
32506;DHT22;18955;51.224;8.482;2022-10-31T01:23:29;12.30;84.80
32506;DHT22;18955;51.224;8.482;2022-10-31T01:29:03;12.20;84.90
32506;DHT22;18955;51.224;8.482;2022-10-31T01:31:32;12.20;84.70
32506;DHT22;18955;51.224;8.482;2022-10-31T01:33:59;12.20;84.70
32506;DHT22;18955;51.224;8.482;2022-10-31T01:36:27;12.20;84.70
32506;DHT22;18955;51.224;8.482;2022-10-31T01:38:55;12.10;84.70
32506;DHT22;18955;51.224;8.482;2022-10-31T01:41:25;12.10;84.80
32506;DHT22;18955;51.224;8.482;2022-10-31T01:43:55;12.10;84.80
32506;DHT22;18955;51.224;8.482;2022-10-31T01:46:31;12.10;84.90
32506;DHT22;18955;51.224;8.482;2022-10-31T01:48:59;12.10;85.00
32506;DHT22;18955;51.224;8.482;2022-10-31T01:51:29;12.00;85.00
32506;DHT22;18955;51.224;8.482;2022-10-31T01:54:02;12.00;84.90
32506;DHT22;18955;51.224;8.482;2022-10-31T01:56:31;12.00;84.80
32506;DHT22;18955;51.224;8.482;2022-10-31T01:59:00;12.00;84.90
32506;DHT22;18955;51.224;8.482;2022-10-31T02:01:28;12.00;84.80
32506;DHT22;18955;51.224;8.482;2022-10-31T02:03:55;12.00;84.90
32506;DHT22;18955;51.224;8.482;2022-10-31T02:06:33;11.90;85.00
32506;DHT22;18955;51.224;8.482;2022-10-31T02:09:04;11.90;85.00
32506;DHT22;18955;51.224;8.482;2022-10-31T02:11:31;11.90;85.00
32506;DHT22;18955;51.224;8.482;2022-10-31T02:14:00;11.90;85.00
32506;DHT22;18955;51.224;8.482;2022-10-31T02:16:27;11.90;84.90
32506;DHT22;18955;51.224;8.482;2022-10-31T02:18:54;11.90;85.00
32506;DHT22;18955;51.224;8.482;2022-10-31T02:24:39;11.80;84.90
32506;DHT22;18955;51.224;8.482;2022-10-31T02:40:53;11.70;84.90
32506;DHT22;18955;51.224;8.482;2022-10-31T02:49:26;11.60;85.00
32506;DHT22;18955;51.224;8.482;2022-10-31T02:51:54;11.60;85.00
32506;DHT22;18955;51.224;8.482;2022-10-31T02:54:25;11.60;85.10
32506;DHT22;18955;51.224;8.482;2022-10-31T02:56:59;11.60;85.10
32506;DHT22;18955;51.224;8.482;2022-10-31T02:59:26;11.60;85.00
32506;DHT22;18955;51.224;8.482;2022-10-31T03:10:13;11.50;85.00
32506;DHT22;18955;51.224;8.482;2022-10-31T03:12:39;11.50;85.00
32506;DHT22;18955;51.224;8.482;2022-10-31T03:18:00;11.50;85.20
32506;DHT22;18955;51.224;8.482;2022-10-31T03:20:35;11.50;85.20
32506;DHT22;18955;51.224;8.482;2022-10-31T03:23:05;11.40;85.00
32506;DHT22;18955;51.224;8.482;2022-10-31T03:25:35;11.40;85.00
32506;DHT22;18955;51.224;8.482;2022-10-31T03:28:04;11.40;85.10
32506;DHT22;18955;51.224;8.482;2022-10-31T03:30:33;11.40;85.20
32506;DHT22;18955;51.224;8.482;2022-10-31T03:33:02;11.40;85.10
32506;DHT22;18955;51.224;8.482;2022-10-31T03:35:30;11.40;85.10
32506;DHT22;18955;51.224;8.482;2022-10-31T03:38:00;11.40;85.20
32506;DHT22;18955;51.224;8.482;2022-10-31T03:40:27;11.30;85.20
32506;DHT22;18955;51.224;8.482;2022-10-31T03:42:58;11.30;85.10
32506;DHT22;18955;51.224;8.482;2022-10-31T03:45:30;11.30;85.10
32506;DHT22;18955;51.224;8.482;2022-10-31T03:47:58;11.30;85.00
32506;DHT22;18955;51.224;8.482;2022-10-31T03:50:28;11.30;85.10
32506;DHT22;18955;51.224;8.482;2022-10-31T03:53:09;11.30;85.10
32506;DHT22;18955;51.224;8.482;2022-10-31T03:55:50;11.30;85.10
32506;DHT22;18955;51.224;8.482;2022-10-31T03:58:22;11.30;85.30
32506;DHT22;18955;51.224;8.482;2022-10-31T04:00:51;11.30;85.20
32506;DHT22;18955;51.224;8.482;2022-10-31T04:03:30;11.20;85.20
32506;DHT22;18955;51.224;8.482;2022-10-31T04:06:05;11.20;85.20
32506;DHT22;18955;51.224;8.482;2022-10-31T04:08:40;11.20;85.20
32506;DHT22;18955;51.224;8.482;2022-10-31T04:11:11;11.20;85.10
32506;DHT22;18955;51.224;8.482;2022-10-31T04:13:42;11.20;85.20
32506;DHT22;18955;51.224;8.482;2022-10-31T04:16:15;11.20;85.80
32506;DHT22;18955;51.224;8.482;2022-10-31T04:18:42;11.20;85.30
32506;DHT22;18955;51.224;8.482;2022-10-31T04:21:08;11.20;85.40
32506;DHT22;18955;51.224;8.482;2022-10-31T04:23:35;11.10;85.30
32506;DHT22;18955;51.224;8.482;2022-10-31T04:26:13;11.10;85.40
32506;DHT22;18955;51.224;8.482;2022-10-31T04:28:39;11.10;85.30
32506;DHT22;18955;51.224;8.482;2022-10-31T04:31:05;11.10;85.30
32506;DHT22;18955;51.224;8.482;2022-10-31T04:33:34;11.10;85.30
32506;DHT22;18955;51.224;8.482;2022-10-31T04:36:02;11.10;85.40
32506;DHT22;18955;51.224;8.482;2022-10-31T04:38:28;11.10;85.40
32506;DHT22;18955;51.224;8.482;2022-10-31T04:40:55;11.10;85.30
32506;DHT22;18955;51.224;8.482;2022-10-31T04:43:41;11.00;85.40
32506;DHT22;18955;51.224;8.482;2022-10-31T04:46:07;11.00;85.30
32506;DHT22;18955;51.224;8.482;2022-10-31T04:48:33;11.00;85.50
32506;DHT22;18955;51.224;8.482;2022-10-31T04:51:02;11.00;85.60
32506;DHT22;18955;51.224;8.482;2022-10-31T04:53:29;11.00;85.50
32506;DHT22;18955;51.224;8.482;2022-10-31T04:56:21;11.00;85.30
32506;DHT22;18955;51.224;8.482;2022-10-31T04:58:51;11.00;85.40
32506;DHT22;18955;51.224;8.482;2022-10-31T05:01:19;11.00;85.50
32506;DHT22;18955;51.224;8.482;2022-10-31T05:03:45;11.00;85.60
32506;DHT22;18955;51.224;8.482;2022-10-31T05:06:11;11.00;85.50
32506;DHT22;18955;51.224;8.482;2022-10-31T05:08:40;11.00;86.10
32506;DHT22;18955;51.224;8.482;2022-10-31T05:11:08;10.90;85.50
32506;DHT22;18955;51.224;8.482;2022-10-31T05:13:34;10.90;85.50
32506;DHT22;18955;51.224;8.482;2022-10-31T05:16:12;10.90;85.50
32506;DHT22;18955;51.224;8.482;2022-10-31T05:19:10;10.90;85.50
32506;DHT22;18955;51.224;8.482;2022-10-31T05:21:55;10.90;85.50
32506;DHT22;18955;51.224;8.482;2022-10-31T05:24:22;10.90;85.50
32506;DHT22;18955;51.224;8.482;2022-10-31T05:26:49;10.90;85.50
32506;DHT22;18955;51.224;8.482;2022-10-31T05:29:15;10.90;85.50
32506;DHT22;18955;51.224;8.482;2022-10-31T05:31:42;10.90;85.50
32506;DHT22;18955;51.224;8.482;2022-10-31T05:34:18;10.80;85.50
32506;DHT22;18955;51.224;8.482;2022-10-31T05:36:44;10.80;85.50
32506;DHT22;18955;51.224;8.482;2022-10-31T05:39:21;10.80;85.40
32506;DHT22;18955;51.224;8.482;2022-10-31T05:41:50;10.80;85.30
32506;DHT22;18955;51.224;8.482;2022-10-31T05:44:22;10.80;85.40
32506;DHT22;18955;51.224;8.482;2022-10-31T05:47:08;10.80;85.40
32506;DHT22;18955;51.224;8.482;2022-10-31T05:50:07;10.80;85.40
32506;DHT22;18955;51.224;8.482;2022-10-31T05:52:53;10.80;85.40
32506;DHT22;18955;51.224;8.482;2022-10-31T05:55:27;10.80;85.40
32506;DHT22;18955;51.224;8.482;2022-10-31T05:58:23;10.80;85.50
32506;DHT22;18955;51.224;8.482;2022-10-31T06:01:06;10.70;85.40
32506;DHT22;18955;51.224;8.482;2022-10-31T06:03:32;10.70;85.40
32506;DHT22;18955;51.224;8.482;2022-10-31T06:06:01;10.70;85.30
32506;DHT22;18955;51.224;8.482;2022-10-31T06:08:35;10.70;85.30
32506;DHT22;18955;51.224;8.482;2022-10-31T06:11:05;10.70;85.40
32506;DHT22;18955;51.224;8.482;2022-10-31T06:13:50;10.70;85.40
32506;DHT22;18955;51.224;8.482;2022-10-31T06:16:22;10.70;85.40
32506;DHT22;18955;51.224;8.482;2022-10-31T06:18:50;10.70;85.40
32506;DHT22;18955;51.224;8.482;2022-10-31T06:21:16;10.60;85.30
32506;DHT22;18955;51.224;8.482;2022-10-31T06:23:43;10.60;85.30
32506;DHT22;18955;51.224;8.482;2022-10-31T06:26:29;10.60;85.30
32506;DHT22;18955;51.224;8.482;2022-10-31T06:28:56;10.60;85.40
32506;DHT22;18955;51.224;8.482;2022-10-31T06:31:45;10.60;85.30
32506;DHT22;18955;51.224;8.482;2022-10-31T06:34:11;10.60;85.30
32506;DHT22;18955;51.224;8.482;2022-10-31T06:36:37;10.60;85.40
32506;DHT22;18955;51.224;8.482;2022-10-31T06:39:04;10.60;85.40
32506;DHT22;18955;51.224;8.482;2022-10-31T06:41:30;10.50;85.30
32506;DHT22;18955;51.224;8.482;2022-10-31T06:43:57;10.60;85.30
32506;DHT22;18955;51.224;8.482;2022-10-31T06:46:47;10.60;85.50
32506;DHT22;18955;51.224;8.482;2022-10-31T06:49:32;10.50;85.40
32506;DHT22;18955;51.224;8.482;2022-10-31T06:52:06;10.50;85.30
32506;DHT22;18955;51.224;8.482;2022-10-31T06:54:33;10.50;85.30
32506;DHT22;18955;51.224;8.482;2022-10-31T06:56:59;10.50;85.30
32506;DHT22;18955;51.224;8.482;2022-10-31T06:59:26;10.50;85.30
32506;DHT22;18955;51.224;8.482;2022-10-31T07:02:01;10.50;85.40
32506;DHT22;18955;51.224;8.482;2022-10-31T07:04:28;10.50;85.30
32506;DHT22;18955;51.224;8.482;2022-10-31T07:06:54;10.50;85.40
32506;DHT22;18955;51.224;8.482;2022-10-31T07:09:21;10.50;85.50
32506;DHT22;18955;51.224;8.482;2022-10-31T07:11:47;10.50;85.30
32506;DHT22;18955;51.224;8.482;2022-10-31T07:14:13;10.40;85.30
32506;DHT22;18955;51.224;8.482;2022-10-31T07:16:40;10.40;85.30
32506;DHT22;18955;51.224;8.482;2022-10-31T07:19:06;10.40;85.20
32506;DHT22;18955;51.224;8.482;2022-10-31T07:21:33;10.40;85.20
32506;DHT22;18955;51.224;8.482;2022-10-31T07:24:01;10.40;85.40
32506;DHT22;18955;51.224;8.482;2022-10-31T07:26:43;10.40;85.40
32506;DHT22;18955;51.224;8.482;2022-10-31T07:29:13;10.40;85.40
32506;DHT22;18955;51.224;8.482;2022-10-31T07:31:39;10.40;85.50
32506;DHT22;18955;51.224;8.482;2022-10-31T07:34:14;10.40;85.50
32506;DHT22;18955;51.224;8.482;2022-10-31T07:37:15;10.40;85.60
32506;DHT22;18955;51.224;8.482;2022-10-31T07:39:41;10.40;85.60
32506;DHT22;18955;51.224;8.482;2022-10-31T07:42:07;10.40;85.60
32506;DHT22;18955;51.224;8.482;2022-10-31T07:44:35;10.40;85.70
32506;DHT22;18955;51.224;8.482;2022-10-31T07:47:19;10.40;85.60
32506;DHT22;18955;51.224;8.482;2022-10-31T07:50:04;10.40;85.80
32506;DHT22;18955;51.224;8.482;2022-10-31T07:53:05;10.40;85.90
32506;DHT22;18955;51.224;8.482;2022-10-31T07:55:53;10.40;86.40
32506;DHT22;18955;51.224;8.482;2022-10-31T07:58:20;10.40;85.90
32506;DHT22;18955;51.224;8.482;2022-10-31T08:00:47;10.40;86.00
32506;DHT22;18955;51.224;8.482;2022-10-31T08:03:19;10.40;86.00
32506;DHT22;18955;51.224;8.482;2022-10-31T08:05:51;10.40;86.20
32506;DHT22;18955;51.224;8.482;2022-10-31T08:08:43;10.40;86.30
32506;DHT22;18955;51.224;8.482;2022-10-31T08:11:09;10.40;86.30
32506;DHT22;18955;51.224;8.482;2022-10-31T08:13:37;10.40;86.70
32506;DHT22;18955;51.224;8.482;2022-10-31T08:16:03;10.40;86.80
32506;DHT22;18955;51.224;8.482;2022-10-31T08:18:33;10.40;86.80
32506;DHT22;18955;51.224;8.482;2022-10-31T08:20:59;10.40;87.00
32506;DHT22;18955;51.224;8.482;2022-10-31T08:23:25;10.40;87.00
32506;DHT22;18955;51.224;8.482;2022-10-31T08:25:54;10.50;87.10
32506;DHT22;18955;51.224;8.482;2022-10-31T08:28:20;10.40;87.00
32506;DHT22;18955;51.224;8.482;2022-10-31T08:30:49;10.50;87.10
32506;DHT22;18955;51.224;8.482;2022-10-31T08:33:34;10.50;87.10
32506;DHT22;18955;51.224;8.482;2022-10-31T08:36:21;10.50;87.20
32506;DHT22;18955;51.224;8.482;2022-10-31T08:39:02;10.50;87.20
32506;DHT22;18955;51.224;8.482;2022-10-31T08:41:30;10.50;87.40
32506;DHT22;18955;51.224;8.482;2022-10-31T08:43:57;10.50;87.40
32506;DHT22;18955;51.224;8.482;2022-10-31T08:46:24;10.50;87.30
32506;DHT22;18955;51.224;8.482;2022-10-31T08:48:50;10.50;87.20
32506;DHT22;18955;51.224;8.482;2022-10-31T08:51:18;10.50;87.20
32506;DHT22;18955;51.224;8.482;2022-10-31T08:53:45;10.50;87.10
32506;DHT22;18955;51.224;8.482;2022-10-31T08:56:37;10.50;87.10
32506;DHT22;18955;51.224;8.482;2022-10-31T08:59:11;10.60;87.00
32506;DHT22;18955;51.224;8.482;2022-10-31T09:01:56;10.60;87.00
32506;DHT22;18955;51.224;8.482;2022-10-31T09:04:22;10.60;87.00
32506;DHT22;18955;51.224;8.482;2022-10-31T09:06:49;10.60;87.00
32506;DHT22;18955;51.224;8.482;2022-10-31T09:09:15;10.60;86.90
32506;DHT22;18955;51.224;8.482;2022-10-31T09:11:42;10.60;86.90
32506;DHT22;18955;51.224;8.482;2022-10-31T09:14:10;10.60;86.80
32506;DHT22;18955;51.224;8.482;2022-10-31T09:16:42;10.60;86.80
32506;DHT22;18955;51.224;8.482;2022-10-31T09:19:15;10.70;86.90
32506;DHT22;18955;51.224;8.482;2022-10-31T09:21:45;10.70;86.80
32506;DHT22;18955;51.224;8.482;2022-10-31T09:24:11;10.70;86.80
32506;DHT22;18955;51.224;8.482;2022-10-31T09:26:38;10.70;86.80
32506;DHT22;18955;51.224;8.482;2022-10-31T09:29:12;10.70;86.80
32506;DHT22;18955;51.224;8.482;2022-10-31T09:31:39;10.70;86.70
32506;DHT22;18955;51.224;8.482;2022-10-31T09:34:37;10.70;86.60
32506;DHT22;18955;51.224;8.482;2022-10-31T09:37:06;10.80;86.70
32506;DHT22;18955;51.224;8.482;2022-10-31T09:39:34;10.80;86.60
32506;DHT22;18955;51.224;8.482;2022-10-31T09:42:30;10.80;86.70
32506;DHT22;18955;51.224;8.482;2022-10-31T09:47:57;10.80;86.60
32506;DHT22;18955;51.224;8.482;2022-10-31T09:50:47;10.90;86.60
32506;DHT22;18955;51.224;8.482;2022-10-31T09:53:49;10.90;86.50
32506;DHT22;18955;51.224;8.482;2022-10-31T09:56:22;10.90;86.60
32506;DHT22;18955;51.224;8.482;2022-10-31T09:58:53;11.00;86.50
32506;DHT22;18955;51.224;8.482;2022-10-31T10:01:50;11.00;87.00
32506;DHT22;18955;51.224;8.482;2022-10-31T10:04:51;11.00;87.40
32506;DHT22;18955;51.224;8.482;2022-10-31T10:10:23;11.10;88.00
32506;DHT22;18955;51.224;8.482;2022-10-31T10:13:15;11.20;87.00
32506;DHT22;18955;51.224;8.482;2022-10-31T10:21:46;11.30;87.50
32506;DHT22;18955;51.224;8.482;2022-10-31T10:24:36;11.30;88.00
32506;DHT22;18955;51.224;8.482;2022-10-31T10:27:31;11.40;87.70
32506;DHT22;18955;51.224;8.482;2022-10-31T10:30:03;11.40;88.30
32506;DHT22;18955;51.224;8.482;2022-10-31T10:35:47;11.50;88.60
32506;DHT22;18955;51.224;8.482;2022-10-31T10:38:37;11.50;87.50
32506;DHT22;18955;51.224;8.482;2022-10-31T10:41:16;11.50;87.60
32506;DHT22;18955;51.224;8.482;2022-10-31T10:43:43;11.50;87.20
32506;DHT22;18955;51.224;8.482;2022-10-31T10:49:18;11.60;87.60
32506;DHT22;18955;51.224;8.482;2022-10-31T10:52:08;11.60;87.50
32506;DHT22;18955;51.224;8.482;2022-10-31T10:59:47;11.70;88.10
32506;DHT22;18955;51.224;8.482;2022-10-31T11:02:23;11.70;88.10
32506;DHT22;18955;51.224;8.482;2022-10-31T11:04:52;11.80;88.40
32506;DHT22;18955;51.224;8.482;2022-10-31T11:07:20;11.80;88.30
32506;DHT22;18955;51.224;8.482;2022-10-31T11:09:46;11.80;88.20
32506;DHT22;18955;51.224;8.482;2022-10-31T11:12:29;11.90;88.30
32506;DHT22;18955;51.224;8.482;2022-10-31T11:14:59;11.90;88.30
32506;DHT22;18955;51.224;8.482;2022-10-31T11:17:30;11.90;88.50
32506;DHT22;18955;51.224;8.482;2022-10-31T11:22:27;12.00;88.60
32506;DHT22;18955;51.224;8.482;2022-10-31T11:24:53;12.00;88.60
32506;DHT22;18955;51.224;8.482;2022-10-31T11:27:21;12.00;88.60
32506;DHT22;18955;51.224;8.482;2022-10-31T11:29:49;12.10;88.60
32506;DHT22;18955;51.224;8.482;2022-10-31T11:32:26;12.10;88.70
32506;DHT22;18955;51.224;8.482;2022-10-31T11:34:57;12.10;88.70
32506;DHT22;18955;51.224;8.482;2022-10-31T11:37:27;12.10;88.80
32506;DHT22;18955;51.224;8.482;2022-10-31T11:40:05;12.20;88.80
32506;DHT22;18955;51.224;8.482;2022-10-31T11:42:40;12.20;88.90
32506;DHT22;18955;51.224;8.482;2022-10-31T11:45:15;12.20;88.80
32506;DHT22;18955;51.224;8.482;2022-10-31T11:47:45;12.30;88.60
32506;DHT22;18955;51.224;8.482;2022-10-31T11:50:19;12.30;88.80
32506;DHT22;18955;51.224;8.482;2022-10-31T11:52:47;12.30;88.80
32506;DHT22;18955;51.224;8.482;2022-10-31T11:55:15;12.30;88.70
32506;DHT22;18955;51.224;8.482;2022-10-31T11:57:46;12.40;88.90
32506;DHT22;18955;51.224;8.482;2022-10-31T12:00:33;12.40;88.80
32506;DHT22;18955;51.224;8.482;2022-10-31T12:03:15;12.40;88.80
32506;DHT22;18955;51.224;8.482;2022-10-31T12:08:19;12.40;88.70
32506;DHT22;18955;51.224;8.482;2022-10-31T12:14:06;12.50;88.60
32506;DHT22;18955;51.224;8.482;2022-10-31T12:25:02;12.60;88.30
32506;DHT22;18955;51.224;8.482;2022-10-31T12:30:18;12.70;88.30
32506;DHT22;18955;51.224;8.482;2022-10-31T12:51:40;12.90;88.20
32506;DHT22;18955;51.224;8.482;2022-10-31T12:54:19;12.90;88.10
32506;DHT22;18955;51.224;8.482;2022-10-31T13:04:57;13.10;88.10
32506;DHT22;18955;51.224;8.482;2022-10-31T13:12:49;13.10;88.00
32506;DHT22;18955;51.224;8.482;2022-10-31T13:15:23;13.10;88.10
32506;DHT22;18955;51.224;8.482;2022-10-31T13:17:59;13.20;88.10
32506;DHT22;18955;51.224;8.482;2022-10-31T13:20:30;13.20;88.10
32506;DHT22;18955;51.224;8.482;2022-10-31T13:23:05;13.20;88.20
32506;DHT22;18955;51.224;8.482;2022-10-31T13:25:39;13.20;88.10
32506;DHT22;18955;51.224;8.482;2022-10-31T13:28:20;13.30;88.10
32506;DHT22;18955;51.224;8.482;2022-10-31T13:30:50;13.30;88.10
32506;DHT22;18955;51.224;8.482;2022-10-31T13:36:03;13.30;88.00
32506;DHT22;18955;51.224;8.482;2022-10-31T13:38:54;13.30;88.00
32506;DHT22;18955;51.224;8.482;2022-10-31T13:41:38;13.30;88.50
32506;DHT22;18955;51.224;8.482;2022-10-31T13:46:40;13.40;87.90
32506;DHT22;18955;51.224;8.482;2022-10-31T13:54:40;13.40;88.00
32506;DHT22;18955;51.224;8.482;2022-10-31T13:59:52;13.50;87.90
32506;DHT22;18955;51.224;8.482;2022-10-31T14:02:26;13.40;87.80
32506;DHT22;18955;51.224;8.482;2022-10-31T14:05:06;13.50;87.90
32506;DHT22;18955;51.224;8.482;2022-10-31T14:07:32;13.50;87.90
32506;DHT22;18955;51.224;8.482;2022-10-31T14:10:01;13.50;87.80
32506;DHT22;18955;51.224;8.482;2022-10-31T14:12:37;13.50;87.70
32506;DHT22;18955;51.224;8.482;2022-10-31T14:15:25;13.60;87.70
32506;DHT22;18955;51.224;8.482;2022-10-31T14:17:57;13.50;87.80
32506;DHT22;18955;51.224;8.482;2022-10-31T14:20:44;13.60;87.80
32506;DHT22;18955;51.224;8.482;2022-10-31T14:31:43;13.60;87.70
32506;DHT22;18955;51.224;8.482;2022-10-31T14:34:30;13.60;87.50
32506;DHT22;18955;51.224;8.482;2022-10-31T14:46:00;13.70;87.50
32506;DHT22;18955;51.224;8.482;2022-10-31T14:48:25;13.70;87.50
32506;DHT22;18955;51.224;8.482;2022-10-31T14:51:00;13.70;87.60
32506;DHT22;18955;51.224;8.482;2022-10-31T14:53:39;13.70;87.50
32506;DHT22;18955;51.224;8.482;2022-10-31T14:56:10;13.70;87.40
32506;DHT22;18955;51.224;8.482;2022-10-31T14:58:43;13.80;87.40
32506;DHT22;18955;51.224;8.482;2022-10-31T15:01:25;13.70;87.40
32506;DHT22;18955;51.224;8.482;2022-10-31T15:03:52;13.80;87.40
32506;DHT22;18955;51.224;8.482;2022-10-31T15:06:21;13.80;87.40
32506;DHT22;18955;51.224;8.482;2022-10-31T15:08:50;13.80;87.30
32506;DHT22;18955;51.224;8.482;2022-10-31T15:11:20;13.80;87.40
32506;DHT22;18955;51.224;8.482;2022-10-31T15:16:17;13.80;87.20
32506;DHT22;18955;51.224;8.482;2022-10-31T15:18:50;13.80;87.10
32506;DHT22;18955;51.224;8.482;2022-10-31T15:21:17;13.80;87.10
32506;DHT22;18955;51.224;8.482;2022-10-31T15:23:46;13.80;87.10
32506;DHT22;18955;51.224;8.482;2022-10-31T15:26:19;13.80;87.10
32506;DHT22;18955;51.224;8.482;2022-10-31T15:28:46;13.80;87.10
32506;DHT22;18955;51.224;8.482;2022-10-31T15:31:15;13.80;87.10
32506;DHT22;18955;51.224;8.482;2022-10-31T15:33:46;13.80;87.20
32506;DHT22;18955;51.224;8.482;2022-10-31T15:36:20;13.80;87.10
32506;DHT22;18955;51.224;8.482;2022-10-31T15:38:48;13.80;87.10
32506;DHT22;18955;51.224;8.482;2022-10-31T15:43:49;13.80;87.10
32506;DHT22;18955;51.224;8.482;2022-10-31T15:46:15;13.80;87.20
32506;DHT22;18955;51.224;8.482;2022-10-31T15:48:46;13.80;87.10
32506;DHT22;18955;51.224;8.482;2022-10-31T15:51:13;13.80;87.20
32506;DHT22;18955;51.224;8.482;2022-10-31T15:53:51;13.90;87.20
32506;DHT22;18955;51.224;8.482;2022-10-31T15:56:29;13.80;87.20
32506;DHT22;18955;51.224;8.482;2022-10-31T15:58:58;13.90;87.20
32506;DHT22;18955;51.224;8.482;2022-10-31T16:01:30;13.90;87.20
32506;DHT22;18955;51.224;8.482;2022-10-31T16:04:26;13.90;87.20
32506;DHT22;18955;51.224;8.482;2022-10-31T16:07:00;13.90;87.20
32506;DHT22;18955;51.224;8.482;2022-10-31T16:09:27;13.90;87.20
32506;DHT22;18955;51.224;8.482;2022-10-31T16:11:56;13.90;87.20
32506;DHT22;18955;51.224;8.482;2022-10-31T16:14:28;13.90;87.20
32506;DHT22;18955;51.224;8.482;2022-10-31T16:16:57;13.90;87.20
32506;DHT22;18955;51.224;8.482;2022-10-31T16:19:28;13.90;87.70
32506;DHT22;18955;51.224;8.482;2022-10-31T16:22:06;13.90;87.20
32506;DHT22;18955;51.224;8.482;2022-10-31T16:24:38;13.90;87.20
32506;DHT22;18955;51.224;8.482;2022-10-31T16:27:21;13.90;87.20
32506;DHT22;18955;51.224;8.482;2022-10-31T16:29:56;13.90;87.20
32506;DHT22;18955;51.224;8.482;2022-10-31T16:32:28;13.90;87.20
32506;DHT22;18955;51.224;8.482;2022-10-31T16:35:17;13.90;87.20
32506;DHT22;18955;51.224;8.482;2022-10-31T16:37:44;13.90;87.20
32506;DHT22;18955;51.224;8.482;2022-10-31T16:40:14;13.90;87.20
32506;DHT22;18955;51.224;8.482;2022-10-31T16:42:42;13.90;87.20
32506;DHT22;18955;51.224;8.482;2022-10-31T16:45:22;13.90;87.20
32506;DHT22;18955;51.224;8.482;2022-10-31T16:47:49;13.90;87.20
32506;DHT22;18955;51.224;8.482;2022-10-31T16:50:24;13.90;87.20
32506;DHT22;18955;51.224;8.482;2022-10-31T16:52:51;13.90;87.20
32506;DHT22;18955;51.224;8.482;2022-10-31T16:55:18;13.90;87.20
32506;DHT22;18955;51.224;8.482;2022-10-31T16:57:48;13.90;87.20
32506;DHT22;18955;51.224;8.482;2022-10-31T17:00:20;13.90;87.20
32506;DHT22;18955;51.224;8.482;2022-10-31T17:02:48;13.80;87.10
32506;DHT22;18955;51.224;8.482;2022-10-31T17:05:17;13.90;87.20
32506;DHT22;18955;51.224;8.482;2022-10-31T17:07:44;13.80;87.10
32506;DHT22;18955;51.224;8.482;2022-10-31T17:10:12;13.90;87.20
32506;DHT22;18955;51.224;8.482;2022-10-31T17:12:42;13.80;87.20
32506;DHT22;18955;51.224;8.482;2022-10-31T17:15:24;13.80;87.10
32506;DHT22;18955;51.224;8.482;2022-10-31T17:17:51;13.80;87.10
32506;DHT22;18955;51.224;8.482;2022-10-31T17:22:45;13.80;87.30
32506;DHT22;18955;51.224;8.482;2022-10-31T17:25:17;13.80;87.20
32506;DHT22;18955;51.224;8.482;2022-10-31T17:27:43;13.80;87.10
32506;DHT22;18955;51.224;8.482;2022-10-31T17:30:12;13.80;87.20
32506;DHT22;18955;51.224;8.482;2022-10-31T17:32:39;13.80;87.10
32506;DHT22;18955;51.224;8.482;2022-10-31T17:35:07;13.80;87.10
32506;DHT22;18955;51.224;8.482;2022-10-31T17:37:34;13.80;87.20
32506;DHT22;18955;51.224;8.482;2022-10-31T17:40:01;13.80;87.20
32506;DHT22;18955;51.224;8.482;2022-10-31T17:42:27;13.80;87.30
32506;DHT22;18955;51.224;8.482;2022-10-31T17:44:53;13.80;87.30
32506;DHT22;18955;51.224;8.482;2022-10-31T17:47:19;13.70;87.10
32506;DHT22;18955;51.224;8.482;2022-10-31T17:49:45;13.70;87.10
32506;DHT22;18955;51.224;8.482;2022-10-31T17:52:12;13.80;87.20
32506;DHT22;18955;51.224;8.482;2022-10-31T17:54:38;13.70;87.10
32506;DHT22;18955;51.224;8.482;2022-10-31T17:57:04;13.70;87.10
32506;DHT22;18955;51.224;8.482;2022-10-31T17:59:30;13.70;87.20
32506;DHT22;18955;51.224;8.482;2022-10-31T18:01:57;13.70;87.10
32506;DHT22;18955;51.224;8.482;2022-10-31T18:04:25;13.70;87.20
32506;DHT22;18955;51.224;8.482;2022-10-31T18:06:51;13.70;87.20
32506;DHT22;18955;51.224;8.482;2022-10-31T18:09:18;13.70;87.10
32506;DHT22;18955;51.224;8.482;2022-10-31T18:11:44;13.70;87.10
32506;DHT22;18955;51.224;8.482;2022-10-31T18:14:10;13.70;87.10
32506;DHT22;18955;51.224;8.482;2022-10-31T18:16:37;13.60;87.10
32506;DHT22;18955;51.224;8.482;2022-10-31T18:19:03;13.60;87.10
32506;DHT22;18955;51.224;8.482;2022-10-31T18:21:31;13.60;87.10
32506;DHT22;18955;51.224;8.482;2022-10-31T18:23:58;13.60;87.10
32506;DHT22;18955;51.224;8.482;2022-10-31T18:26:26;13.60;87.10
32506;DHT22;18955;51.224;8.482;2022-10-31T18:28:53;13.60;87.00
32506;DHT22;18955;51.224;8.482;2022-10-31T18:31:20;13.60;87.00
32506;DHT22;18955;51.224;8.482;2022-10-31T18:33:46;13.60;87.00